Terminal Aerodrome Forecast
Issued by NWS

Home | Current Version | Previous Version | Text Only | Print | Product List | Glossary On
Versions: 1 2 3 4 5 6 7 8 9 10 11 12 13 14 15 16 17 18 19 20 21 22 23 24 25 26 27 28 29 30 31 32 33 34 35 36 37 38 39 40
000
FTUS43 KMQT 172328
TAFCMX
TAF
KCMX 172328Z 1800/1824 32007KT 5SM -SHSN BKN020
     FM180400 31010G19KT P6SM VCSH BKN030
     FM180900 31011G21KT 4SM -SHSN BKN025
     FM181100 32012G21KT 4SM -SHSN OVC017
     FM181800 35010G19KT 4SM -SHSN OVC014=

USA.gov is the U.S. government's official web portal to all federal, state and local government web resources and services.